Time;durP1;ratioP1;P1;durP2;ratioP2;P2;SDS_P1;SDS_P2;PMS_P1;PMS_P2;Temp;Humidity;BMP_temperature;BMP_pressure;BME280_temperature;BME280_humidity;BME280_pressure;Samples;Min_cycle;Max_cycle;Signal;HPM_P1;HPM_P2
2021/11/12 00:14:09;;;;;;;74.82;39.15;;;;;;;;;;5051574;28;20102;-48
2021/11/12 00:16:36;;;;;;;104.82;38.35;;;;;;;;;;5052469;28;20474;-51
2021/11/12 00:19:05;;;;;;;81.28;45.58;;;;;;;;;;5052791;28;20029;-49
2021/11/12 00:21:34;;;;;;;68.85;40.85;;;;;;;;;;5052695;28;20097;-48
2021/11/12 00:24:00;;;;;;;98.40;54.08;;;;;;;;;;5052521;28;20037;-52
2021/11/12 00:26:27;;;;;;;78.28;43.42;;;;;;;;;;5052680;28;20017;-51
2021/11/12 00:28:56;;;;;;;64.32;35.25;;;;;;;;;;5055076;28;20108;-53
2021/11/12 00:38:53;;;;;;;71.63;33.72;;;;;;;;;;5056464;28;20033;-51
2021/11/12 00:44:12;;;;;;;66.35;36.88;;;;;;;;;;5056328;28;19994;-53
2021/11/12 00:47:03;;;;;;;71.13;36.42;;;;;;;;;;5056352;28;20017;-52
2021/11/12 00:49:34;;;;;;;63.78;37.30;;;;;;;;;;5056049;28;20036;-53
2021/11/12 00:52:10;;;;;;;61.85;34.88;;;;;;;;;;5056063;28;20124;-50
2021/11/12 00:54:39;;;;;;;58.92;32.38;;;;;;;;;;5056123;28;20041;-51
2021/11/12 00:57:07;;;;;;;102.93;34.60;;;;;;;;;;5056442;28;20047;-54
2021/11/12 00:59:33;;;;;;;59.03;31.60;;;;;;;;;;5056276;28;20052;-52
2021/11/12 01:02:02;;;;;;;62.75;31.65;;;;;;;;;;5055968;28;20083;-51
2021/11/12 01:04:28;;;;;;;69.30;31.83;;;;;;;;;;5054843;28;20400;-51
2021/11/12 01:06:55;;;;;;;54.47;32.78;;;;;;;;;;5055942;28;20163;-53
2021/11/12 01:09:23;;;;;;;59.92;32.33;;;;;;;;;;5055980;28;20082;-51
2021/11/12 01:11:50;;;;;;;58.88;34.28;;;;;;;;;;5056000;28;20043;-51
2021/11/12 01:14:19;;;;;;;54.92;32.92;;;;;;;;;;5055674;28;20136;-54
2021/11/12 01:16:48;;;;;;;53.65;31.27;;;;;;;;;;5055651;28;20021;-57
2021/11/12 01:19:15;;;;;;;62.42;32.75;;;;;;;;;;5055720;28;20028;-51
2021/11/12 01:21:44;;;;;;;84.28;32.25;;;;;;;;;;5055377;28;20465;-50
2021/11/12 01:24:10;;;;;;;56.10;31.40;;;;;;;;;;5055590;28;20111;-50
2021/11/12 01:26:36;;;;;;;49.42;29.25;;;;;;;;;;5055435;28;20428;-51
2021/11/12 01:29:07;;;;;;;54.63;31.38;;;;;;;;;;5055498;28;20025;-49
2021/11/12 01:31:33;;;;;;;62.15;30.75;;;;;;;;;;5055389;28;20381;-51
2021/11/12 01:34:07;;;;;;;48.63;27.02;;;;;;;;;;5055425;28;20401;-52
2021/11/12 01:36:35;;;;;;;73.43;31.63;;;;;;;;;;5055286;28;20039;-53
2021/11/12 01:39:06;;;;;;;81.97;31.00;;;;;;;;;;5055373;28;20385;-55
2021/11/12 01:41:33;;;;;;;59.38;28.70;;;;;;;;;;5055195;28;20021;-51
2021/11/12 01:44:03;;;;;;;57.25;27.55;;;;;;;;;;5055451;28;20025;-51
2021/11/12 01:57:27;;;;;;;57.85;32.42;;;;;;;;;;5054890;28;20021;-51
2021/11/12 01:59:47;;;;;;;58.03;32.53;;;;;;;;;;5054643;28;20120;-49
2021/11/12 02:02:14;;;;;;;57.08;31.13;;;;;;;;;;5054959;28;20476;-52
2021/11/12 02:04:40;;;;;;;50.17;26.95;;;;;;;;;;5054902;28;20123;-55
2021/11/12 02:07:06;;;;;;;53.55;29.40;;;;;;;;;;5054740;28;20055;-50
2021/11/12 02:09:33;;;;;;;49.80;28.15;;;;;;;;;;5054795;28;20021;-49
2021/11/12 02:12:11;;;;;;;54.70;29.83;;;;;;;;;;5054427;28;20050;-50
2021/11/12 02:14:41;;;;;;;53.63;29.67;;;;;;;;;;5054698;28;20174;-52
2021/11/12 02:17:45;;;;;;;55.85;30.13;;;;;;;;;;5054456;28;20127;-53
2021/11/12 02:20:13;;;;;;;57.80;28.73;;;;;;;;;;5052998;28;20029;-53
2021/11/12 02:22:40;;;;;;;57.33;30.60;;;;;;;;;;5054403;28;20028;-50
2021/11/12 02:25:13;;;;;;;56.08;30.48;;;;;;;;;;5054405;28;20495;-50
2021/11/12 02:27:52;;;;;;;69.72;30.92;;;;;;;;;;5054326;28;20036;-51
2021/11/12 02:30:23;;;;;;;61.63;31.35;;;;;;;;;;5054416;28;20029;-50
2021/11/12 02:32:58;;;;;;;70.78;29.98;;;;;;;;;;5054172;28;20064;-50
2021/11/12 02:35:24;;;;;;;59.15;31.60;;;;;;;;;;5054137;28;20032;-53
2021/11/12 02:37:50;;;;;;;59.80;31.45;;;;;;;;;;5054024;28;20017;-50
2021/11/12 02:40:17;;;;;;;56.38;30.00;;;;;;;;;;5054175;28;20032;-55
2021/11/12 02:42:43;;;;;;;59.28;31.10;;;;;;;;;;5054060;28;20048;-53
2021/11/12 02:45:09;;;;;;;68.22;28.25;;;;;;;;;;5054025;28;20021;-52
2021/11/12 02:47:35;;;;;;;74.25;29.10;;;;;;;;;;5053756;28;20025;-52
2021/11/12 02:50:01;;;;;;;61.38;29.65;;;;;;;;;;5053514;28;20036;-51
2021/11/12 02:52:28;;;;;;;126.05;31.55;;;;;;;;;;5053399;28;20070;-51
2021/11/12 02:54:54;;;;;;;63.65;32.60;;;;;;;;;;5053823;28;20170;-51
2021/11/12 02:57:22;;;;;;;59.00;32.30;;;;;;;;;;5053807;28;20017;-51
2021/11/12 02:59:49;;;;;;;64.10;33.13;;;;;;;;;;5053778;28;20032;-50
2021/11/12 03:02:15;;;;;;;64.63;33.60;;;;;;;;;;5053728;28;20355;-51
2021/11/12 03:04:41;;;;;;;65.28;31.60;;;;;;;;;;5053786;28;20020;-50
2021/11/12 03:07:07;;;;;;;66.75;34.05;;;;;;;;;;5053529;28;20503;-51
2021/11/12 03:09:34;;;;;;;71.10;35.05;;;;;;;;;;5053517;28;20414;-51
2021/11/12 03:12:01;;;;;;;74.25;34.72;;;;;;;;;;5053504;28;20029;-49
2021/11/12 03:14:28;;;;;;;71.68;34.65;;;;;;;;;;5053625;28;20163;-50
2021/11/12 03:16:55;;;;;;;68.38;33.83;;;;;;;;;;5053418;28;20147;-50
2021/11/12 03:19:25;;;;;;;84.47;36.83;;;;;;;;;;5053352;28;20024;-54
2021/11/12 03:21:54;;;;;;;80.97;38.60;;;;;;;;;;5053154;28;20056;-52
2021/11/12 03:24:30;;;;;;;78.15;36.55;;;;;;;;;;5053445;28;20120;-53
2021/11/12 03:30:06;;;;;;;84.93;39.25;;;;;;;;;;5052607;28;20044;-50
2021/11/12 05:14:05;;;;;;;97.60;43.28;;;;;;;;;;5055396;28;20055;-51
2021/11/12 05:44:07;;;;;;;98.70;45.45;;;;;;;;;;5055564;28;20500;-47
2021/11/12 05:46:42;;;;;;;95.40;42.72;;;;;;;;;;5055326;28;20029;-52
2021/11/12 05:57:23;;;;;;;103.03;41.20;;;;;;;;;;5055260;28;20078;-46
2021/11/12 05:59:55;;;;;;;99.53;42.83;;;;;;;;;;5054960;28;20487;-46
2021/11/12 06:02:24;;;;;;;111.68;49.10;;;;;;;;;;5054701;28;20457;-46
2021/11/12 06:04:53;;;;;;;101.95;43.85;;;;;;;;;;5054790;28;20077;-46
2021/11/12 06:07:22;;;;;;;101.18;45.63;;;;;;;;;;5054718;28;20024;-46
2021/11/12 06:09:48;;;;;;;102.95;43.10;;;;;;;;;;5054900;28;20025;-46
2021/11/12 06:12:14;;;;;;;100.20;43.75;;;;;;;;;;5054746;28;20098;-46
2021/11/12 06:14:41;;;;;;;110.30;45.67;;;;;;;;;;5054847;28;20122;-46
2021/11/12 06:17:07;;;;;;;98.68;45.95;;;;;;;;;;5054535;28;20022;-46
2021/11/12 06:19:34;;;;;;;102.75;45.40;;;;;;;;;;5054570;28;20025;-45
2021/11/12 06:22:00;;;;;;;98.20;42.22;;;;;;;;;;5054483;28;20021;-45
2021/11/12 06:24:26;;;;;;;94.97;42.72;;;;;;;;;;5054521;28;20055;-45
2021/11/12 06:26:53;;;;;;;100.68;45.92;;;;;;;;;;5053432;28;20013;-46
2021/11/12 06:29:19;;;;;;;109.00;49.35;;;;;;;;;;5054290;28;20029;-45
2021/11/12 06:31:46;;;;;;;111.55;48.03;;;;;;;;;;5054247;28;20382;-45
2021/11/12 06:34:12;;;;;;;105.32;44.17;;;;;;;;;;5054086;28;20043;-53
2021/11/12 06:36:38;;;;;;;103.57;42.97;;;;;;;;;;5054190;28;20021;-54
2021/11/12 06:39:07;;;;;;;99.82;44.70;;;;;;;;;;5053978;28;20033;-54
2021/11/12 06:49:33;;;;;;;96.22;44.45;;;;;;;;;;5053920;28;20036;-52
2021/11/12 06:51:59;;;;;;;104.82;46.88;;;;;;;;;;5053709;28;20057;-47
2021/11/12 06:54:25;;;;;;;91.80;41.83;;;;;;;;;;5053809;28;20039;-52
2021/11/12 06:56:52;;;;;;;100.63;44.45;;;;;;;;;;5052565;28;20462;-46
2021/11/12 06:59:18;;;;;;;92.28;41.10;;;;;;;;;;5053846;28;20029;-46
2021/11/12 07:01:44;;;;;;;99.57;45.53;;;;;;;;;;5053592;28;20025;-46
2021/11/12 07:04:10;;;;;;;99.32;45.28;;;;;;;;;;5053431;28;20433;-46
2021/11/12 07:06:36;;;;;;;161.52;78.30;;;;;;;;;;5053486;28;20028;-46
2021/11/12 07:09:06;;;;;;;120.03;57.08;;;;;;;;;;5053750;28;20028;-46
2021/11/12 07:11:32;;;;;;;112.45;52.13;;;;;;;;;;5053556;28;20110;-46
2021/11/12 07:13:59;;;;;;;121.30;57.88;;;;;;;;;;5053414;28;20393;-46
2021/11/12 07:16:25;;;;;;;102.43;48.03;;;;;;;;;;5053402;28;20029;-46
2021/11/12 07:18:54;;;;;;;106.68;49.03;;;;;;;;;;5053263;28;20028;-53
2021/11/12 07:21:22;;;;;;;123.30;54.97;;;;;;;;;;5053415;28;20412;-49
2021/11/12 07:23:48;;;;;;;136.07;59.70;;;;;;;;;;5053430;28;20040;-46
2021/11/12 07:26:16;;;;;;;121.05;55.25;;;;;;;;;;5053415;28;20461;-46
2021/11/12 07:28:42;;;;;;;113.65;49.97;;;;;;;;;;5053277;28;20450;-54
2021/11/12 07:31:08;;;;;;;117.28;51.33;;;;;;;;;;5053245;28;20021;-47
2021/11/12 07:33:36;;;;;;;116.80;52.60;;;;;;;;;;5052973;28;20496;-47
2021/11/12 07:38:59;;;;;;;94.55;43.13;;;;;;;;;;5053129;28;20100;-46
2021/11/12 07:49:04;;;;;;;100.72;46.03;;;;;;;;;;5053294;28;20029;-46
2021/11/12 07:51:30;;;;;;;88.10;40.55;;;;;;;;;;5052818;28;20045;-54
2021/11/12 07:53:59;;;;;;;100.25;44.83;;;;;;;;;;5053039;28;20045;-53
2021/11/12 07:56:28;;;;;;;114.35;51.63;;;;;;;;;;5052991;28;20489;-45
2021/11/12 07:58:54;;;;;;;105.85;45.85;;;;;;;;;;5052863;28;20031;-44
2021/11/12 08:01:21;;;;;;;108.22;52.75;;;;;;;;;;5052262;28;20453;-47
2021/11/12 08:03:50;;;;;;;143.02;67.07;;;;;;;;;;5052332;28;20021;-50
2021/11/12 08:06:18;;;;;;;131.40;62.22;;;;;;;;;;5052390;28;20029;-49
2021/11/12 08:08:51;;;;;;;116.88;52.63;;;;;;;;;;5052356;28;20415;-49
2021/11/12 08:11:53;;;;;;;111.57;54.10;;;;;;;;;;5052240;28;20036;-45
2021/11/12 08:19:16;;;;;;;124.65;57.83;;;;;;;;;;5052796;28;20029;-47
2021/11/12 08:39:44;;;;;;;93.82;43.05;;;;;;;;;;5052593;28;20116;-53
2021/11/12 08:42:20;;;;;;;114.75;48.03;;;;;;;;;;5052765;28;20029;-49
2021/11/12 08:47:29;;;;;;;99.93;44.97;;;;;;;;;;5052448;28;20091;-49
2021/11/12 08:49:57;;;;;;;102.47;47.70;;;;;;;;;;5054401;28;20033;-49
2021/11/12 08:52:25;;;;;;;103.47;45.95;;;;;;;;;;5056122;28;20033;-48
2021/11/12 08:54:51;;;;;;;112.55;49.00;;;;;;;;;;5056060;28;20036;-49
2021/11/12 08:57:17;;;;;;;98.68;43.42;;;;;;;;;;5054842;28;20124;-49
2021/11/12 08:59:53;;;;;;;100.38;44.83;;;;;;;;;;5056492;28;20025;-49
2021/11/12 09:02:23;;;;;;;100.65;44.10;;;;;;;;;;5056140;28;20033;-49
2021/11/12 09:04:50;;;;;;;104.07;46.53;;;;;;;;;;5056022;28;20020;-48
2021/11/12 09:07:17;;;;;;;117.53;50.80;;;;;;;;;;5056402;28;20028;-49
2021/11/12 09:09:44;;;;;;;104.50;46.00;;;;;;;;;;5056076;28;20021;-49
2021/11/12 09:12:13;;;;;;;135.52;54.70;;;;;;;;;;5055757;28;20021;-50
2021/11/12 09:14:46;;;;;;;129.30;52.58;;;;;;;;;;5055801;28;20539;-49
2021/11/12 09:17:13;;;;;;;106.50;46.28;;;;;;;;;;5055866;28;20025;-49
2021/11/12 09:19:50;;;;;;;102.60;45.70;;;;;;;;;;5055688;28;20025;-50
2021/11/12 09:22:17;;;;;;;94.65;43.30;;;;;;;;;;5055618;28;20029;-49
2021/11/12 09:24:43;;;;;;;93.32;44.28;;;;;;;;;;5055750;28;20090;-48
2021/11/12 09:27:10;;;;;;;85.63;42.30;;;;;;;;;;5055619;28;20432;-49
2021/11/12 09:29:37;;;;;;;100.70;44.50;;;;;;;;;;5055553;28;20029;-53
2021/11/12 09:32:04;;;;;;;103.40;44.20;;;;;;;;;;5055660;28;20021;-48
2021/11/12 09:34:34;;;;;;;93.85;43.45;;;;;;;;;;5055407;28;20032;-49
2021/11/12 09:37:02;;;;;;;104.13;45.20;;;;;;;;;;5055617;28;20032;-50
2021/11/12 09:39:31;;;;;;;100.43;45.65;;;;;;;;;;5055363;28;20099;-49
2021/11/12 09:41:58;;;;;;;94.43;44.70;;;;;;;;;;5055595;28;20477;-53
2021/11/12 09:44:25;;;;;;;99.30;43.58;;;;;;;;;;5055339;28;20032;-49
2021/11/12 09:46:51;;;;;;;97.20;43.03;;;;;;;;;;5055623;28;20021;-49
2021/11/12 09:49:17;;;;;;;95.10;42.00;;;;;;;;;;5055351;28;20047;-49
2021/11/12 09:51:44;;;;;;;98.22;43.05;;;;;;;;;;5055310;28;20041;-48
2021/11/12 09:54:11;;;;;;;86.80;41.03;;;;;;;;;;5054965;28;20043;-49
2021/11/12 09:56:37;;;;;;;88.45;41.58;;;;;;;;;;5055025;28;20029;-49
2021/11/12 09:59:03;;;;;;;90.45;42.72;;;;;;;;;;5055296;28;20444;-49
2021/11/12 10:01:35;;;;;;;86.18;41.60;;;;;;;;;;5055041;28;20096;-49
2021/11/12 10:04:06;;;;;;;73.75;33.90;;;;;;;;;;5054899;28;20021;-49
2021/11/12 10:06:39;;;;;;;79.22;36.97;;;;;;;;;;5055370;28;20167;-49
2021/11/12 10:09:21;;;;;;;72.53;34.83;;;;;;;;;;5054969;28;20029;-49
2021/11/12 10:11:52;;;;;;;66.50;31.45;;;;;;;;;;5055067;28;20104;-50
2021/11/12 10:14:26;;;;;;;71.03;34.33;;;;;;;;;;5054740;28;20037;-53
2021/11/12 10:16:56;;;;;;;59.42;30.75;;;;;;;;;;5054785;28;20025;-49
2021/11/12 10:19:24;;;;;;;68.13;31.92;;;;;;;;;;5054681;28;20082;-50
2021/11/12 10:21:52;;;;;;;63.33;31.50;;;;;;;;;;5054963;28;20058;-50
2021/11/12 10:24:19;;;;;;;70.43;32.50;;;;;;;;;;5054522;28;20477;-50
2021/11/12 10:26:48;;;;;;;61.85;31.00;;;;;;;;;;5054753;28;20051;-50
2021/11/12 10:29:15;;;;;;;63.35;31.45;;;;;;;;;;5054482;28;20032;-50
2021/11/12 10:31:49;;;;;;;62.22;32.75;;;;;;;;;;5054403;28;20024;-50
2021/11/12 10:34:23;;;;;;;63.83;30.92;;;;;;;;;;5054099;28;20056;-50
2021/11/12 10:36:57;;;;;;;60.80;31.02;;;;;;;;;;5054484;28;20029;-53
2021/11/12 10:39:27;;;;;;;62.92;30.50;;;;;;;;;;5054485;28;20029;-50
2021/11/12 10:41:53;;;;;;;61.40;32.22;;;;;;;;;;5054193;28;20477;-50
2021/11/12 10:44:22;;;;;;;62.38;30.98;;;;;;;;;;5054242;28;20032;-53
2021/11/12 10:46:48;;;;;;;54.03;30.25;;;;;;;;;;5054249;28;20161;-52
2021/11/12 10:49:27;;;;;;;56.90;29.55;;;;;;;;;;5054076;28;20047;-50
2021/11/12 10:51:55;;;;;;;61.22;30.00;;;;;;;;;;5053679;28;20059;-50
2021/11/12 10:54:40;;;;;;;58.92;29.85;;;;;;;;;;5054076;28;20029;-52
2021/11/12 10:57:07;;;;;;;54.58;30.23;;;;;;;;;;5054175;28;20060;-51
2021/11/12 10:59:35;;;;;;;58.20;30.17;;;;;;;;;;5053853;28;20028;-52
2021/11/12 11:02:04;;;;;;;57.33;30.55;;;;;;;;;;5053684;28;20047;-53
2021/11/12 11:04:32;;;;;;;57.38;30.27;;;;;;;;;;5053791;28;20492;-53
2021/11/12 11:07:17;;;;;;;58.33;31.17;;;;;;;;;;5053729;28;20021;-52
2021/11/12 11:09:43;;;;;;;53.00;28.08;;;;;;;;;;5053825;28;20032;-50
2021/11/12 11:12:32;;;;;;;55.00;29.33;;;;;;;;;;5053439;28;20029;-51
2021/11/12 11:15:31;;;;;;;67.20;31.85;;;;;;;;;;5053689;28;20044;-50
2021/11/12 11:18:07;;;;;;;64.55;30.60;;;;;;;;;;5012023;28;20499;-50
2021/11/12 11:20:34;;;;;;;60.42;29.40;;;;;;;;;;5011773;28;20049;-50
2021/11/12 11:23:01;;;;;;;58.67;31.55;;;;;;;;;;5011826;28;20359;-50
2021/11/12 11:25:33;;;;;;;57.10;30.92;;;;;;;;;;5011872;28;20073;-54
2021/11/12 11:28:03;;;;;;;65.70;32.65;;;;;;;;;;5011749;28;20056;-50
2021/11/12 11:30:29;;;;;;;64.88;32.58;;;;;;;;;;5011692;28;20126;-50
2021/11/12 11:32:55;;;;;;;69.47;31.70;;;;;;;;;;5011711;28;20466;-50
2021/11/12 11:35:22;;;;;;;68.57;34.47;;;;;;;;;;5011421;28;20081;-50
2021/11/12 11:37:52;;;;;;;60.72;28.95;;;;;;;;;;5011616;28;20022;-50
2021/11/12 11:40:19;;;;;;;56.53;29.52;;;;;;;;;;5011860;28;20097;-50
2021/11/12 11:42:46;;;;;;;63.63;32.10;;;;;;;;;;5011668;28;20022;-50
2021/11/12 11:45:13;;;;;;;59.33;30.80;;;;;;;;;;5011830;28;20026;-50
2021/11/12 11:47:42;;;;;;;59.15;31.58;;;;;;;;;;5011550;28;20038;-49
2021/11/12 11:50:21;;;;;;;63.15;32.35;;;;;;;;;;5011100;28;20041;-50
2021/11/12 11:52:47;;;;;;;61.67;31.90;;;;;;;;;;5018101;28;20055;-51
2021/11/12 11:55:30;;;;;;;61.50;31.48;;;;;;;;;;5053116;28;20067;-52
2021/11/12 11:57:56;;;;;;;65.53;32.17;;;;;;;;;;5053014;28;20055;-50
2021/11/12 12:00:23;;;;;;;63.70;31.63;;;;;;;;;;5052928;28;20036;-51
2021/11/12 12:03:11;;;;;;;64.95;31.55;;;;;;;;;;5053243;28;20048;-50
2021/11/12 12:05:56;;;;;;;62.58;32.88;;;;;;;;;;5052928;28;20043;-50
2021/11/12 12:08:28;;;;;;;58.80;30.70;;;;;;;;;;5053361;28;20362;-50
2021/11/12 12:11:13;;;;;;;53.88;28.50;;;;;;;;;;5052966;28;20477;-50
2021/11/12 12:13:39;;;;;;;55.58;30.02;;;;;;;;;;5053024;28;20025;-50
2021/11/12 12:16:07;;;;;;;53.10;28.52;;;;;;;;;;5052908;28;20029;-51
2021/11/12 12:18:44;;;;;;;54.70;29.50;;;;;;;;;;5052875;28;20048;-50
2021/11/12 13:21:28;;;;;;;63.63;33.75;;;;;;;;;;4946598;28;20122;-42
2021/11/12 13:24:33;;;;;;;81.85;39.13;;;;;;;;;;5024119;28;20152;-46
2021/11/12 13:26:38;;;;;;;92.25;43.00;;;;;;;;;;5041086;28;20029;-43
2021/11/12 13:29:06;;;;;;;71.82;35.13;;;;;;;;;;5056059;28;20033;-44
2021/11/12 13:31:32;;;;;;;90.88;44.75;;;;;;;;;;5055458;28;20487;-44
2021/11/12 13:34:01;;;;;;;68.68;35.35;;;;;;;;;;5046048;28;20030;-45
2021/11/12 13:36:43;;;;;;;94.45;49.72;;;;;;;;;;5042212;28;20072;-45
2021/11/12 13:39:16;;;;;;;61.35;32.97;;;;;;;;;;5036664;28;20029;-44
2021/11/12 13:41:43;;;;;;;80.38;40.33;;;;;;;;;;5035477;28;20543;-45
2021/11/12 13:44:11;;;;;;;78.75;37.97;;;;;;;;;;5035338;28;20025;-41
2021/11/12 13:47:03;;;;;;;65.63;34.30;;;;;;;;;;5044575;28;20539;-45
2021/11/12 13:49:43;;;;;;;63.35;32.50;;;;;;;;;;5053291;28;20104;-47
2021/11/12 13:52:18;;;;;;;66.82;32.72;;;;;;;;;;5053276;28;20520;-42
2021/11/12 13:54:50;;;;;;;55.67;30.83;;;;;;;;;;5052428;28;20020;-42
2021/11/12 13:57:21;;;;;;;53.05;29.70;;;;;;;;;;5054732;28;20045;-43
2021/11/12 13:59:51;;;;;;;47.73;27.07;;;;;;;;;;5054753;28;20029;-46
2021/11/12 14:02:17;;;;;;;51.85;29.90;;;;;;;;;;5035151;28;20266;-43
2021/11/12 14:04:45;;;;;;;62.75;33.13;;;;;;;;;;5041830;28;20021;-43
2021/11/12 14:07:16;;;;;;;54.35;30.88;;;;;;;;;;5054766;28;20037;-43
2021/11/12 14:09:42;;;;;;;57.08;30.80;;;;;;;;;;5045896;28;20048;-43
2021/11/12 14:12:13;;;;;;;51.45;30.50;;;;;;;;;;5034824;28;20029;-42
2021/11/12 14:14:41;;;;;;;67.13;37.05;;;;;;;;;;5034814;28;20481;-43
2021/11/12 14:17:22;;;;;;;121.47;71.38;;;;;;;;;;5034705;28;20040;-43
2021/11/12 14:25:11;;;;;;;71.40;37.65;;;;;;;;;;5035222;28;20029;-41
2021/11/12 14:27:57;;;;;;;;;;;;;;;;;;5049801;28;20187;-43
2021/11/12 14:54:25;;;;;;;62.40;36.17;;;;;;;;;;5011096;28;20034;-42
2021/11/12 14:56:51;;;;;;;73.70;38.33;;;;;;;;;;5011343;28;20045;-42
2021/11/12 14:59:18;;;;;;;73.15;35.10;;;;;;;;;;5011625;28;20030;-43
2021/11/12 15:01:45;;;;;;;63.97;31.92;;;;;;;;;;5011485;28;20470;-43
2021/11/12 15:04:11;;;;;;;65.07;33.60;;;;;;;;;;5011978;28;20129;-43
2021/11/12 15:06:39;;;;;;;78.88;37.17;;;;;;;;;;5011841;28;20572;-42
2021/11/12 15:09:30;;;;;;;59.30;32.42;;;;;;;;;;5011874;28;20038;-42
2021/11/12 15:11:55;;;;;;;62.65;33.13;;;;;;;;;;5011416;28;20033;-41
2021/11/12 15:14:34;;;;;;;66.78;33.72;;;;;;;;;;5011467;28;20113;-44
2021/11/12 15:17:02;;;;;;;93.28;44.28;;;;;;;;;;5011635;28;20446;-43
2021/11/12 15:19:29;;;;;;;77.82;39.75;;;;;;;;;;5011546;28;20057;-44
2021/11/12 15:27:16;;;;;;;98.93;48.83;;;;;;;;;;5009975;28;20033;-49
2021/11/12 15:29:52;;;;;;;111.18;54.42;;;;;;;;;;5008841;28;20502;-52
2021/11/12 15:34:53;;;;;;;94.18;50.08;;;;;;;;;;5044262;28;20547;-53
2021/11/12 15:45:11;;;;;;;136.57;70.38;;;;;;;;;;5041581;28;20038;-50
2021/11/12 15:47:53;;;;;;;126.97;69.07;;;;;;;;;;5038921;28;20029;-52
2021/11/12 15:50:58;;;;;;;119.97;66.30;;;;;;;;;;5038734;28;20045;-46
2021/11/12 15:53:18;;;;;;;98.45;50.80;;;;;;;;;;5030963;28;20049;-52
2021/11/12 16:12:02;;;;;;;92.40;53.20;;;;;;;;;;5029168;28;20029;-46
2021/11/12 16:14:33;;;;;;;88.05;47.17;;;;;;;;;;5028201;28;20040;-46
2021/11/12 16:25:17;;;;;;;86.55;43.40;;;;;;;;;;5030882;28;20029;-46
2021/11/12 16:28:01;;;;;;;88.07;46.28;;;;;;;;;;5032669;28;20029;-46
2021/11/12 16:30:34;;;;;;;100.85;51.47;;;;;;;;;;5027521;28;20037;-46
2021/11/12 16:33:02;;;;;;;102.20;51.63;;;;;;;;;;5009632;28;20094;-47
2021/11/12 16:35:32;;;;;;;110.95;54.72;;;;;;;;;;5029015;28;20044;-47
2021/11/12 16:38:05;;;;;;;116.57;57.58;;;;;;;;;;5031925;28;20033;-49
2021/11/12 16:40:37;;;;;;;112.00;56.95;;;;;;;;;;5028539;28;20061;-46
2021/11/12 16:46:06;;;;;;;97.72;53.33;;;;;;;;;;5030216;28;20117;-47
2021/11/12 16:59:14;;;;;;;112.28;55.80;;;;;;;;;;5032305;28;20568;-48
2021/11/12 17:04:41;;;;;;;130.65;60.70;;;;;;;;;;5029776;28;20030;-47
2021/11/12 17:07:10;;;;;;;110.90;57.13;;;;;;;;;;5027802;28;20822;-47
2021/11/12 17:09:50;;;;;;;98.43;51.00;;;;;;;;;;5026737;28;20527;-46
2021/11/12 17:12:48;;;;;;;93.78;47.60;;;;;;;;;;5026326;28;20025;-46
2021/11/12 17:15:23;;;;;;;118.10;58.25;;;;;;;;;;5025357;28;20056;-47
2021/11/12 17:47:23;;;;;;;109.88;55.20;;;;;;;;;;5024970;28;20051;-45
2021/11/12 17:50:00;;;;;;;101.07;50.57;;;;;;;;;;5024151;28;20137;-48
2021/11/12 18:06:31;;;;;;;88.70;47.83;;;;;;;;;;5001188;28;20072;-47
2021/11/12 21:48:25;;;;;;;89.40;44.35;;;;;;;;;;4955974;28;20041;-49
2021/11/12 21:50:54;;;;;;;115.10;62.10;;;;;;;;;;4957123;28;20152;-48
2021/11/12 21:53:22;;;;;;;98.30;50.10;;;;;;;;;;4954588;28;20511;-50
2021/11/12 21:55:49;;;;;;;109.70;57.83;;;;;;;;;;4955258;28;20554;-50
2021/11/12 21:58:15;;;;;;;95.25;48.83;;;;;;;;;;4995561;28;20045;-50
2021/11/12 22:00:42;;;;;;;75.95;38.95;;;;;;;;;;5027117;28;20017;-49
2021/11/12 22:03:09;;;;;;;80.95;41.28;;;;;;;;;;5029380;28;20111;-48
2021/11/12 22:05:35;;;;;;;78.53;40.13;;;;;;;;;;5026976;28;20066;-48
2021/11/12 22:08:02;;;;;;;83.50;42.03;;;;;;;;;;5027623;28;20036;-49
2021/11/12 22:10:28;;;;;;;82.18;43.03;;;;;;;;;;5029970;28;20024;-48
2021/11/12 22:12:54;;;;;;;77.70;40.08;;;;;;;;;;5029381;28;20036;-49
2021/11/12 22:15:20;;;;;;;97.32;48.60;;;;;;;;;;5030951;28;20031;-48
2021/11/12 22:17:46;;;;;;;93.65;47.03;;;;;;;;;;5028530;28;20036;-48
2021/11/12 22:20:13;;;;;;;97.65;51.47;;;;;;;;;;5029928;28;20820;-49
2021/11/12 22:22:40;;;;;;;78.63;42.78;;;;;;;;;;5028576;28;20140;-49
2021/11/12 22:25:06;;;;;;;65.85;36.22;;;;;;;;;;5028047;28;20347;-49
2021/11/12 22:27:33;;;;;;;71.88;38.47;;;;;;;;;;5030765;28;20026;-49
2021/11/12 22:29:59;;;;;;;82.63;40.67;;;;;;;;;;5027370;28;20412;-49
2021/11/12 22:32:28;;;;;;;87.88;47.60;;;;;;;;;;5027439;28;20776;-49
2021/11/12 22:34:55;;;;;;;86.07;44.95;;;;;;;;;;5027927;28;20116;-48
2021/11/12 22:37:21;;;;;;;80.03;37.63;;;;;;;;;;5027184;28;20032;-48
2021/11/12 22:39:47;;;;;;;89.65;47.08;;;;;;;;;;5028474;28;20017;-48
2021/11/12 22:42:14;;;;;;;99.85;52.53;;;;;;;;;;5028870;28;20030;-48
2021/11/12 22:44:40;;;;;;;78.53;39.65;;;;;;;;;;5029435;28;20473;-48
2021/11/12 22:47:06;;;;;;;82.13;44.17;;;;;;;;;;5030283;28;20020;-49
2021/11/12 22:49:32;;;;;;;64.45;35.97;;;;;;;;;;5028649;28;20052;-49
2021/11/12 22:51:59;;;;;;;64.70;35.97;;;;;;;;;;5026814;28;20055;-49
2021/11/12 22:54:25;;;;;;;72.60;38.72;;;;;;;;;;5029146;28;20401;-49
2021/11/12 22:56:52;;;;;;;98.10;48.72;;;;;;;;;;5028757;28;20316;-49
2021/11/12 22:59:18;;;;;;;96.80;51.38;;;;;;;;;;5028165;28;20021;-49
2021/11/12 23:01:45;;;;;;;84.43;42.50;;;;;;;;;;5026573;28;20029;-49
2021/11/12 23:04:14;;;;;;;95.10;49.60;;;;;;;;;;5028097;28;20395;-49
2021/11/12 23:06:42;;;;;;;109.30;56.30;;;;;;;;;;5028404;28;20063;-50
2021/11/12 23:09:08;;;;;;;94.88;47.58;;;;;;;;;;5027235;28;20029;-49
2021/11/12 23:11:35;;;;;;;94.68;48.55;;;;;;;;;;5027355;28;20028;-50
2021/11/12 23:14:03;;;;;;;98.32;48.03;;;;;;;;;;5027249;28;20029;-51
2021/11/12 23:16:30;;;;;;;103.63;50.38;;;;;;;;;;5027059;28;20048;-49
2021/11/12 23:18:58;;;;;;;83.47;43.25;;;;;;;;;;5028043;28;20112;-51
2021/11/12 23:21:25;;;;;;;82.60;41.45;;;;;;;;;;5028543;28;20044;-49
2021/11/12 23:23:52;;;;;;;91.18;44.33;;;;;;;;;;5027899;28;20497;-49
2021/11/12 23:26:19;;;;;;;76.32;40.50;;;;;;;;;;5028905;28;20420;-48
2021/11/12 23:28:45;;;;;;;82.50;41.90;;;;;;;;;;5029414;28;20029;-48
2021/11/12 23:31:12;;;;;;;89.10;45.28;;;;;;;;;;5028927;28;20079;-48
2021/11/12 23:33:38;;;;;;;77.63;39.58;;;;;;;;;;5025172;28;20564;-50
2021/11/12 23:36:05;;;;;;;71.07;37.90;;;;;;;;;;5028041;28;20507;-49
2021/11/12 23:38:31;;;;;;;77.13;38.42;;;;;;;;;;5029592;28;20037;-50
2021/11/12 23:40:57;;;;;;;70.60;38.55;;;;;;;;;;5029155;28;20013;-47
2021/11/12 23:43:24;;;;;;;77.95;40.50;;;;;;;;;;5031141;28;20029;-51
2021/11/12 23:45:50;;;;;;;94.78;49.38;;;;;;;;;;5029895;28;20421;-52
2021/11/12 23:48:16;;;;;;;86.72;45.40;;;;;;;;;;5025877;28;20025;-48
2021/11/12 23:50:43;;;;;;;80.82;41.85;;;;;;;;;;5029036;28;20045;-52
2021/11/12 23:53:09;;;;;;;86.90;43.30;;;;;;;;;;5028560;28;20025;-49
2021/11/12 23:55:35;;;;;;;85.50;44.47;;;;;;;;;;5026103;28;20798;-48
2021/11/12 23:58:03;;;;;;;82.00;42.15;;;;;;;;;;5029935;28;20068;-47
